Time;durP1;ratioP1;P1;durP2;ratioP2;P2;SDS_P1;SDS_P2;PMS_P1;PMS_P2;Temp;Humidity;BMP_temperature;BMP_pressure;BME280_temperature;BME280_humidity;BME280_pressure;Samples;Min_cycle;Max_cycle;Signal;HPM_P1;HPM_P2
2023/03/17 00:02:29;;;;;;;9.07;6.00;;;;;;;;;;5078102;28;20013;-68
2023/03/17 00:05:16;;;;;;;10.05;5.72;;;;;;;;;;5076990;28;20020;-69
2023/03/17 00:08:14;;;;;;;10.55;5.88;;;;;;;;;;5055855;28;20099;-69
2023/03/17 00:11:00;;;;;;;9.30;5.88;;;;;;;;;;5041693;28;20025;-69
2023/03/17 00:13:45;;;;;;;10.25;6.28;;;;;;;;;;5056537;28;20448;-67
2023/03/17 00:16:33;;;;;;;9.23;5.85;;;;;;;;;;5057613;28;20025;-69
2023/03/17 00:19:25;;;;;;;10.00;5.68;;;;;;;;;;5057984;28;20028;-69
2023/03/17 00:22:14;;;;;;;7.30;5.30;;;;;;;;;;5057182;28;20040;-69
2023/03/17 00:24:59;;;;;;;8.32;5.50;;;;;;;;;;5041661;28;20028;-69
2023/03/17 00:27:45;;;;;;;9.20;6.00;;;;;;;;;;5042390;28;20021;-69
2023/03/17 00:30:30;;;;;;;9.90;6.32;;;;;;;;;;5057768;28;20051;-69
2023/03/17 00:33:16;;;;;;;7.93;5.78;;;;;;;;;;5056577;28;20079;-69
2023/03/17 00:36:02;;;;;;;10.15;6.18;;;;;;;;;;5056246;28;20449;-69
2023/03/17 00:38:48;;;;;;;8.98;5.97;;;;;;;;;;5056454;28;20095;-67
2023/03/17 00:41:34;;;;;;;9.20;6.18;;;;;;;;;;5056745;28;20029;-69
2023/03/17 00:44:19;;;;;;;9.52;6.07;;;;;;;;;;5057364;28;20028;-68
2023/03/17 00:47:06;;;;;;;13.35;6.45;;;;;;;;;;5057687;28;20061;-69
2023/03/17 00:49:51;;;;;;;9.93;6.60;;;;;;;;;;5056550;28;20447;-69
2023/03/17 00:52:38;;;;;;;12.23;7.07;;;;;;;;;;5041244;28;20069;-68
2023/03/17 00:55:25;;;;;;;12.00;7.47;;;;;;;;;;5041277;28;20429;-68
2023/03/17 00:58:11;;;;;;;14.63;9.07;;;;;;;;;;5056028;28;20021;-68
2023/03/17 01:00:56;;;;;;;12.73;8.32;;;;;;;;;;5056484;28;20012;-69
2023/03/17 01:03:42;;;;;;;14.52;9.10;;;;;;;;;;5055894;28;20028;-68
2023/03/17 01:06:28;;;;;;;14.23;8.52;;;;;;;;;;5024125;28;1141489;-68
2023/03/17 01:09:15;;;;;;;14.63;8.95;;;;;;;;;;5076895;28;20079;-69
2023/03/17 01:12:01;;;;;;;14.70;9.05;;;;;;;;;;5076553;28;20034;-68
2023/03/17 01:14:47;;;;;;;15.38;9.45;;;;;;;;;;5061451;28;20108;-68
2023/03/17 01:17:32;;;;;;;14.30;9.35;;;;;;;;;;5076596;28;20086;-70
2023/03/17 01:20:20;;;;;;;14.07;9.35;;;;;;;;;;5075960;28;20163;-69
2023/03/17 01:23:06;;;;;;;13.82;9.57;;;;;;;;;;5075432;28;20028;-69
2023/03/17 01:25:51;;;;;;;14.75;10.00;;;;;;;;;;5076617;28;20028;-69
2023/03/17 01:28:38;;;;;;;15.00;9.20;;;;;;;;;;5075449;28;20044;-69
2023/03/17 01:31:25;;;;;;;14.32;9.30;;;;;;;;;;5075423;28;20025;-69
2023/03/17 01:34:10;;;;;;;16.35;10.07;;;;;;;;;;5075877;28;20039;-69
2023/03/17 01:36:56;;;;;;;16.75;9.50;;;;;;;;;;5074388;28;20415;-68
2023/03/17 01:39:41;;;;;;;15.13;9.52;;;;;;;;;;5061371;28;20568;-69
2023/03/17 01:42:27;;;;;;;15.73;10.15;;;;;;;;;;5060200;28;20163;-69
2023/03/17 01:45:37;;;;;;;14.73;9.55;;;;;;;;;;5075268;28;20025;-69
2023/03/17 01:48:23;;;;;;;15.95;10.13;;;;;;;;;;5041625;28;20029;-69
2023/03/17 01:51:15;;;;;;;15.70;9.70;;;;;;;;;;5076326;28;20024;-69
2023/03/17 01:54:03;;;;;;;16.23;9.88;;;;;;;;;;5076118;28;20090;-69
2023/03/17 01:56:51;;;;;;;18.00;10.60;;;;;;;;;;5060411;28;20017;-69
2023/03/17 01:59:40;;;;;;;17.65;10.88;;;;;;;;;;5074508;28;20017;-69
2023/03/17 02:02:29;;;;;;;18.00;10.30;;;;;;;;;;5075221;28;20025;-70
2023/03/17 02:05:16;;;;;;;17.17;10.82;;;;;;;;;;5074936;28;20012;-69
2023/03/17 02:08:07;;;;;;;16.10;9.68;;;;;;;;;;5075499;28;20036;-70
2023/03/17 02:10:55;;;;;;;17.67;10.88;;;;;;;;;;5075835;28;20404;-69
2023/03/17 02:13:43;;;;;;;18.45;11.18;;;;;;;;;;5061021;28;20021;-69
2023/03/17 02:16:29;;;;;;;15.43;10.27;;;;;;;;;;5061138;28;20024;-69
2023/03/17 02:19:15;;;;;;;17.90;11.15;;;;;;;;;;5074764;28;20052;-69
2023/03/17 02:22:01;;;;;;;16.13;10.70;;;;;;;;;;5074457;28;20039;-69
2023/03/17 02:24:52;;;;;;;17.80;11.27;;;;;;;;;;5074657;28;20123;-69
2023/03/17 02:27:40;;;;;;;17.42;10.23;;;;;;;;;;5075178;28;20034;-70
2023/03/17 02:30:27;;;;;;;17.23;10.57;;;;;;;;;;5074160;28;20021;-69
2023/03/17 02:33:12;;;;;;;17.63;10.65;;;;;;;;;;5075037;28;20020;-69
2023/03/17 02:35:58;;;;;;;17.85;11.00;;;;;;;;;;5074199;28;20403;-69
2023/03/17 02:38:43;;;;;;;18.52;11.80;;;;;;;;;;5074723;28;20029;-68
2023/03/17 02:41:29;;;;;;;17.23;11.10;;;;;;;;;;5059970;28;20107;-69
2023/03/17 02:44:15;;;;;;;18.65;11.07;;;;;;;;;;5074050;28;20031;-69
2023/03/17 02:47:02;;;;;;;17.52;11.32;;;;;;;;;;5073942;28;20411;-70
2023/03/17 02:49:47;;;;;;;17.48;10.77;;;;;;;;;;5074968;28;20047;-69
2023/03/17 02:52:33;;;;;;;16.85;11.57;;;;;;;;;;5073712;28;20020;-69
2023/03/17 02:55:19;;;;;;;18.27;11.32;;;;;;;;;;5074170;28;20077;-69
2023/03/17 02:58:04;;;;;;;17.10;10.70;;;;;;;;;;5074029;28;20334;-67
2023/03/17 03:00:50;;;;;;;17.75;11.32;;;;;;;;;;5074693;28;20386;-70
2023/03/17 03:03:36;;;;;;;17.77;11.45;;;;;;;;;;5074276;28;20027;-69
2023/03/17 03:06:22;;;;;;;15.40;10.63;;;;;;;;;;5074049;28;20123;-68
2023/03/17 03:09:09;;;;;;;16.65;11.27;;;;;;;;;;5074190;28;20047;-69
2023/03/17 03:11:55;;;;;;;17.52;11.50;;;;;;;;;;5074058;28;20441;-68
2023/03/17 03:14:40;;;;;;;18.23;10.50;;;;;;;;;;5073567;28;20111;-69
2023/03/17 03:17:26;;;;;;;16.45;10.85;;;;;;;;;;5058521;28;20441;-69
2023/03/17 03:20:12;;;;;;;16.45;10.95;;;;;;;;;;5074139;28;20361;-70
2023/03/17 03:22:57;;;;;;;16.58;11.05;;;;;;;;;;5072941;28;20052;-70
2023/03/17 03:25:43;;;;;;;15.73;10.65;;;;;;;;;;5073069;28;20020;-69
2023/03/17 03:28:29;;;;;;;16.42;10.25;;;;;;;;;;5060543;28;20518;-69
2023/03/17 03:31:15;;;;;;;15.75;10.10;;;;;;;;;;5073846;28;20043;-69
2023/03/17 03:34:01;;;;;;;17.15;10.60;;;;;;;;;;5072821;28;20502;-68
2023/03/17 03:36:46;;;;;;;16.23;10.77;;;;;;;;;;5074603;28;20024;-68
2023/03/17 03:39:32;;;;;;;14.90;10.45;;;;;;;;;;5073788;28;20013;-69
2023/03/17 03:42:17;;;;;;;16.00;11.05;;;;;;;;;;5073542;28;20020;-68
2023/03/17 03:45:03;;;;;;;18.35;11.07;;;;;;;;;;5073766;28;20117;-69
2023/03/17 03:47:49;;;;;;;17.50;10.60;;;;;;;;;;5073336;28;20555;-69
2023/03/17 03:50:35;;;;;;;16.60;10.88;;;;;;;;;;5073887;28;20356;-69
2023/03/17 03:53:20;;;;;;;16.02;10.85;;;;;;;;;;5073881;28;20017;-68
2023/03/17 03:56:06;;;;;;;15.35;10.90;;;;;;;;;;5074925;28;20023;-69
2023/03/17 03:58:51;;;;;;;15.77;11.82;;;;;;;;;;5074050;28;20475;-69
2023/03/17 04:01:38;;;;;;;16.40;11.80;;;;;;;;;;5077375;28;20038;-69
2023/03/17 04:04:24;;;;;;;17.85;12.07;;;;;;;;;;5077476;28;20460;-68
2023/03/17 04:07:10;;;;;;;15.95;11.55;;;;;;;;;;5063050;28;20123;-69
2023/03/17 04:09:56;;;;;;;20.33;11.93;;;;;;;;;;5056373;28;20459;-69
2023/03/17 04:12:42;;;;;;;16.17;11.90;;;;;;;;;;5057119;28;20025;-69
2023/03/17 04:15:28;;;;;;;20.10;13.02;;;;;;;;;;5057346;28;20021;-69
2023/03/17 04:18:13;;;;;;;17.70;12.07;;;;;;;;;;5056907;28;20029;-69
2023/03/17 04:20:59;;;;;;;16.73;11.27;;;;;;;;;;5056263;28;20017;-69
2023/03/17 04:23:45;;;;;;;15.88;11.73;;;;;;;;;;5057652;28;20024;-68
2023/03/17 04:26:31;;;;;;;17.30;11.88;;;;;;;;;;5056484;28;20025;-69
2023/03/17 04:29:16;;;;;;;17.75;11.82;;;;;;;;;;5057884;28;20098;-68
2023/03/17 04:32:02;;;;;;;17.80;11.10;;;;;;;;;;5056773;28;20429;-69
2023/03/17 04:34:48;;;;;;;17.35;10.98;;;;;;;;;;5057432;28;20032;-70
2023/03/17 04:37:33;;;;;;;15.10;10.88;;;;;;;;;;5056534;28;20029;-70
2023/03/17 04:40:19;;;;;;;16.50;10.52;;;;;;;;;;5056898;28;20013;-68
2023/03/17 04:43:05;;;;;;;16.52;10.65;;;;;;;;;;5055907;28;20023;-68
2023/03/17 04:45:51;;;;;;;16.23;10.32;;;;;;;;;;5057273;28;20017;-69
2023/03/17 04:48:40;;;;;;;16.95;10.32;;;;;;;;;;5041624;28;20025;-68
2023/03/17 04:51:26;;;;;;;14.65;10.05;;;;;;;;;;5056943;28;20025;-68
2023/03/17 04:54:11;;;;;;;15.48;9.85;;;;;;;;;;5055886;28;20031;-69
2023/03/17 04:56:57;;;;;;;14.10;9.32;;;;;;;;;;5042781;28;20029;-68
2023/03/17 04:59:43;;;;;;;16.98;10.23;;;;;;;;;;5041345;28;20020;-69
2023/03/17 05:02:28;;;;;;;17.15;10.30;;;;;;;;;;5041895;28;20465;-69
2023/03/17 05:05:14;;;;;;;15.63;9.77;;;;;;;;;;5055934;28;20078;-69
2023/03/17 05:08:00;;;;;;;14.52;9.48;;;;;;;;;;5075893;28;20068;-69
2023/03/17 05:10:45;;;;;;;15.10;9.40;;;;;;;;;;5074709;28;20025;-69
2023/03/17 05:13:31;;;;;;;13.57;9.65;;;;;;;;;;5076624;28;20055;-68
2023/03/17 05:16:16;;;;;;;12.90;8.95;;;;;;;;;;5060840;28;20028;-68
2023/03/17 05:19:02;;;;;;;15.15;9.13;;;;;;;;;;5076543;28;20020;-69
2023/03/17 05:21:48;;;;;;;15.98;10.77;;;;;;;;;;5076965;28;20021;-68
2023/03/17 05:24:33;;;;;;;15.75;10.40;;;;;;;;;;5075526;28;20388;-69
2023/03/17 05:27:20;;;;;;;18.77;10.57;;;;;;;;;;5075886;28;20028;-69
2023/03/17 05:30:06;;;;;;;15.15;10.15;;;;;;;;;;5076449;28;20024;-68
2023/03/17 05:32:51;;;;;;;15.40;10.13;;;;;;;;;;5075627;28;20056;-69
2023/03/17 05:35:37;;;;;;;14.70;10.20;;;;;;;;;;5075890;28;20020;-70
2023/03/17 05:38:23;;;;;;;14.85;10.00;;;;;;;;;;5076360;28;20060;-69
2023/03/17 05:41:09;;;;;;;19.67;10.95;;;;;;;;;;5076034;28;20099;-68
2023/03/17 05:43:55;;;;;;;16.00;10.27;;;;;;;;;;5075314;28;20024;-69
2023/03/17 05:46:41;;;;;;;17.30;10.90;;;;;;;;;;5075590;28;20028;-69
2023/03/17 05:49:27;;;;;;;17.63;11.43;;;;;;;;;;5075075;28;20074;-69
2023/03/17 05:52:12;;;;;;;16.65;11.65;;;;;;;;;;5074700;28;20024;-69
2023/03/17 05:54:58;;;;;;;17.58;10.98;;;;;;;;;;5075700;28;20028;-69
2023/03/17 05:57:44;;;;;;;16.88;11.25;;;;;;;;;;5074801;28;20020;-69
2023/03/17 06:00:30;;;;;;;18.63;11.80;;;;;;;;;;5075381;28;20020;-69
2023/03/17 06:03:15;;;;;;;22.45;13.95;;;;;;;;;;5075148;28;20036;-69
2023/03/17 06:06:01;;;;;;;16.38;11.38;;;;;;;;;;5074834;28;20072;-68
2023/03/17 06:08:47;;;;;;;17.80;11.23;;;;;;;;;;5074826;28;20419;-69
2023/03/17 06:11:32;;;;;;;15.35;11.13;;;;;;;;;;5074914;28;20012;-69
2023/03/17 06:14:18;;;;;;;14.35;9.65;;;;;;;;;;5060646;28;20036;-69
2023/03/17 06:17:04;;;;;;;13.93;9.35;;;;;;;;;;5074006;28;20020;-69
2023/03/17 06:19:50;;;;;;;15.07;9.88;;;;;;;;;;5074784;28;20108;-69
2023/03/17 06:22:36;;;;;;;13.20;9.27;;;;;;;;;;5075100;28;20070;-69
2023/03/17 06:25:21;;;;;;;15.02;9.07;;;;;;;;;;5074237;28;20016;-69
2023/03/17 06:28:07;;;;;;;15.20;10.07;;;;;;;;;;5074504;28;20358;-71
2023/03/17 06:30:53;;;;;;;13.63;9.18;;;;;;;;;;5074980;28;20031;-69
2023/03/17 06:33:38;;;;;;;13.07;8.98;;;;;;;;;;5074612;28;20024;-67
2023/03/17 06:36:24;;;;;;;12.05;8.55;;;;;;;;;;5060238;28;20016;-70
2023/03/17 06:39:10;;;;;;;11.45;8.43;;;;;;;;;;5074617;28;20012;-71
2023/03/17 06:41:55;;;;;;;13.18;8.63;;;;;;;;;;5059655;28;20380;-68
2023/03/17 06:44:41;;;;;;;13.77;8.48;;;;;;;;;;5073530;28;20107;-70
2023/03/17 06:47:27;;;;;;;12.05;8.15;;;;;;;;;;5074459;28;20027;-70
2023/03/17 06:50:12;;;;;;;14.48;10.02;;;;;;;;;;5075739;28;20067;-70
2023/03/17 06:52:58;;;;;;;11.77;8.50;;;;;;;;;;5075018;28;20016;-68
2023/03/17 06:55:44;;;;;;;12.65;8.75;;;;;;;;;;5060938;28;20031;-70
2023/03/17 06:58:30;;;;;;;14.00;9.48;;;;;;;;;;5076268;28;20098;-69
2023/03/17 07:01:16;;;;;;;14.57;10.40;;;;;;;;;;5074898;28;20118;-71
2023/03/17 07:04:02;;;;;;;14.25;9.48;;;;;;;;;;5074662;28;20035;-69
2023/03/17 07:06:47;;;;;;;14.57;9.10;;;;;;;;;;5074159;28;20076;-69
2023/03/17 07:09:34;;;;;;;15.45;9.13;;;;;;;;;;5075428;28;20032;-69
2023/03/17 07:12:20;;;;;;;15.27;9.75;;;;;;;;;;5074723;28;20029;-69
2023/03/17 07:15:06;;;;;;;14.07;9.45;;;;;;;;;;5075132;28;20463;-69
2023/03/17 07:17:53;;;;;;;15.95;10.00;;;;;;;;;;5074342;28;20020;-70
2023/03/17 07:20:39;;;;;;;14.07;9.15;;;;;;;;;;5074524;28;20031;-69
2023/03/17 07:23:25;;;;;;;12.75;9.55;;;;;;;;;;5074527;28;20370;-69
2023/03/17 07:26:10;;;;;;;16.60;9.50;;;;;;;;;;5074977;28;20334;-70
2023/03/17 07:28:56;;;;;;;14.15;9.40;;;;;;;;;;5074238;28;20032;-69
2023/03/17 07:31:43;;;;;;;12.95;8.90;;;;;;;;;;5074828;28;20353;-70
2023/03/17 07:34:28;;;;;;;14.68;8.77;;;;;;;;;;5061756;28;20016;-69
2023/03/17 07:37:14;;;;;;;12.85;9.23;;;;;;;;;;5077741;28;20028;-69
2023/03/17 07:40:00;;;;;;;14.18;9.20;;;;;;;;;;5077962;28;20055;-69
2023/03/17 07:42:45;;;;;;;13.30;8.73;;;;;;;;;;5078711;28;20437;-69
2023/03/17 07:45:31;;;;;;;11.82;8.05;;;;;;;;;;5077958;28;20107;-70
2023/03/17 07:48:17;;;;;;;12.73;8.70;;;;;;;;;;5078334;28;20089;-69
2023/03/17 07:51:04;;;;;;;12.68;8.75;;;;;;;;;;5077274;28;20024;-70
2023/03/17 07:53:50;;;;;;;12.93;9.20;;;;;;;;;;5078194;28;20441;-70
2023/03/17 07:56:36;;;;;;;12.10;8.57;;;;;;;;;;5079119;28;20035;-71
2023/03/17 07:59:22;;;;;;;14.38;9.10;;;;;;;;;;5078531;28;20452;-69
2023/03/17 08:02:12;;;;;;;12.63;8.07;;;;;;;;;;5078171;28;20126;-70
2023/03/17 08:04:58;;;;;;;16.13;11.13;;;;;;;;;;5078010;28;20099;-69
2023/03/17 08:07:44;;;;;;;12.63;8.35;;;;;;;;;;5076359;28;20052;-69
2023/03/17 08:10:29;;;;;;;11.52;7.85;;;;;;;;;;5077364;28;20449;-70
2023/03/17 08:13:15;;;;;;;18.05;11.32;;;;;;;;;;5076517;28;20060;-69
2023/03/17 08:16:01;;;;;;;46.88;27.00;;;;;;;;;;5077496;28;20103;-69
2023/03/17 08:18:46;;;;;;;13.52;8.75;;;;;;;;;;5077182;28;20013;-70
2023/03/17 08:21:32;;;;;;;12.82;7.50;;;;;;;;;;5064090;28;20243;-69
2023/03/17 08:24:18;;;;;;;14.65;7.75;;;;;;;;;;5077677;28;20055;-68
2023/03/17 08:27:04;;;;;;;11.23;6.90;;;;;;;;;;5077657;28;20479;-69
2023/03/17 08:29:50;;;;;;;9.73;7.03;;;;;;;;;;5076919;28;20372;-69
2023/03/17 08:32:35;;;;;;;12.43;8.45;;;;;;;;;;5063820;28;20440;-70
2023/03/17 08:35:21;;;;;;;12.38;8.15;;;;;;;;;;5076042;28;20333;-69
2023/03/17 08:38:07;;;;;;;11.43;8.02;;;;;;;;;;5063816;28;20338;-69
2023/03/17 08:40:52;;;;;;;13.90;6.93;;;;;;;;;;5077784;28;20472;-69
2023/03/17 08:43:38;;;;;;;12.45;7.70;;;;;;;;;;5063398;28;20465;-68
2023/03/17 08:46:28;;;;;;;11.60;6.97;;;;;;;;;;5076820;28;20047;-69
2023/03/17 08:49:14;;;;;;;11.68;6.22;;;;;;;;;;5063288;28;20083;-70
2023/03/17 08:52:01;;;;;;;14.18;7.20;;;;;;;;;;5075217;28;20028;-69
2023/03/17 08:54:47;;;;;;;15.40;8.07;;;;;;;;;;5076397;28;20092;-69
2023/03/17 08:57:33;;;;;;;11.30;7.35;;;;;;;;;;5077715;28;20093;-69
2023/03/17 09:00:19;;;;;;;10.27;7.05;;;;;;;;;;5076420;28;20107;-69
2023/03/17 09:03:05;;;;;;;13.00;7.63;;;;;;;;;;5077591;28;20028;-69
2023/03/17 09:05:51;;;;;;;15.10;7.63;;;;;;;;;;5075974;28;20106;-69
2023/03/17 09:08:38;;;;;;;9.80;6.78;;;;;;;;;;5076289;28;20123;-69
2023/03/17 09:11:25;;;;;;;11.25;7.43;;;;;;;;;;5076773;28;20028;-69
2023/03/17 09:14:11;;;;;;;12.80;8.10;;;;;;;;;;5063370;28;20099;-69
2023/03/17 09:16:56;;;;;;;12.70;8.27;;;;;;;;;;5075411;28;20036;-69
2023/03/17 09:19:42;;;;;;;11.57;7.78;;;;;;;;;;5062563;28;20086;-70
2023/03/17 09:22:28;;;;;;;11.27;7.47;;;;;;;;;;5077357;28;20035;-69
2023/03/17 09:25:14;;;;;;;12.32;8.35;;;;;;;;;;5077016;28;20021;-69
2023/03/17 09:28:00;;;;;;;15.95;8.07;;;;;;;;;;5075760;28;20024;-69
2023/03/17 09:30:46;;;;;;;10.75;7.70;;;;;;;;;;5075713;28;20139;-69
2023/03/17 09:33:31;;;;;;;11.05;7.07;;;;;;;;;;5076319;28;20024;-69
2023/03/17 09:36:17;;;;;;;11.63;7.30;;;;;;;;;;5060565;28;20077;-70
2023/03/17 09:39:02;;;;;;;11.95;7.40;;;;;;;;;;5076034;28;20048;-69
2023/03/17 09:41:48;;;;;;;11.75;7.60;;;;;;;;;;5074758;28;20020;-69
2023/03/17 09:44:34;;;;;;;10.15;7.35;;;;;;;;;;5075569;28;20048;-69
2023/03/17 09:47:43;;;;;;;19.58;10.50;;;;;;;;;;5075097;28;20345;-70
2023/03/17 09:50:48;;;;;;;16.27;9.57;;;;;;;;;;5049666;28;20468;-68
2023/03/17 09:53:49;;;;;;;17.83;10.18;;;;;;;;;;5075315;28;20056;-68
2023/03/17 09:56:35;;;;;;;16.02;9.80;;;;;;;;;;5074391;28;20421;-69
2023/03/17 09:59:36;;;;;;;22.02;12.40;;;;;;;;;;5076412;28;20029;-69
2023/03/17 10:02:32;;;;;;;36.10;17.15;;;;;;;;;;5074917;28;20125;-69
2023/03/17 10:05:20;;;;;;;44.08;18.67;;;;;;;;;;5075000;28;20337;-68
2023/03/17 10:08:20;;;;;;;17.23;8.82;;;;;;;;;;5075188;28;20076;-68
2023/03/17 10:11:12;;;;;;;24.20;12.00;;;;;;;;;;5075888;28;20020;-69
2023/03/17 10:14:27;;;;;;;20.00;10.63;;;;;;;;;;5075966;28;20104;-70
2023/03/17 10:17:14;;;;;;;12.27;8.15;;;;;;;;;;5069353;28;20032;-70
2023/03/17 10:20:04;;;;;;;12.15;7.45;;;;;;;;;;5061347;28;20020;-68
2023/03/17 10:22:56;;;;;;;12.93;7.43;;;;;;;;;;5060259;28;20021;-69
2023/03/17 10:25:42;;;;;;;17.63;8.77;;;;;;;;;;5075210;28;20432;-69
2023/03/17 10:28:29;;;;;;;14.35;8.65;;;;;;;;;;5073923;28;20035;-70
2023/03/17 10:31:15;;;;;;;10.27;7.03;;;;;;;;;;5075415;28;20028;-70
2023/03/17 10:34:10;;;;;;;9.98;7.10;;;;;;;;;;5061233;28;20032;-68
2023/03/17 10:37:32;;;;;;;10.00;6.78;;;;;;;;;;5074878;28;20028;-70
2023/03/17 10:40:19;;;;;;;10.85;7.30;;;;;;;;;;5024360;28;20090;-70
2023/03/17 10:43:10;;;;;;;13.73;7.88;;;;;;;;;;5074234;28;20067;-68
2023/03/17 10:46:02;;;;;;;14.60;9.55;;;;;;;;;;5076117;28;20096;-70
2023/03/17 10:49:07;;;;;;;11.73;7.72;;;;;;;;;;5062097;28;20087;-69
2023/03/17 10:51:52;;;;;;;11.77;7.57;;;;;;;;;;5074635;28;20043;-69
2023/03/17 10:54:39;;;;;;;10.55;7.28;;;;;;;;;;5061550;28;20090;-69
2023/03/17 10:57:25;;;;;;;10.73;7.32;;;;;;;;;;5061370;28;20032;-70
2023/03/17 11:00:15;;;;;;;9.70;6.80;;;;;;;;;;5075131;28;20448;-70
2023/03/17 11:03:03;;;;;;;11.13;6.72;;;;;;;;;;5075925;28;20151;-70
2023/03/17 11:05:56;;;;;;;11.70;7.18;;;;;;;;;;5075079;28;20518;-69
2023/03/17 11:08:48;;;;;;;13.23;7.70;;;;;;;;;;5076253;28;20040;-69
2023/03/17 11:11:40;;;;;;;10.18;7.30;;;;;;;;;;5079115;28;20028;-69
2023/03/17 11:14:27;;;;;;;13.05;7.85;;;;;;;;;;5080125;28;20118;-70
2023/03/17 11:17:16;;;;;;;13.63;8.15;;;;;;;;;;5080300;28;20028;-71
2023/03/17 11:20:11;;;;;;;14.90;8.45;;;;;;;;;;5079312;28;20032;-71
2023/03/17 11:23:10;;;;;;;11.73;7.60;;;;;;;;;;5079200;28;20016;-71
2023/03/17 11:26:17;;;;;;;13.48;7.70;;;;;;;;;;5077966;28;20020;-70
2023/03/17 11:29:25;;;;;;;12.60;7.22;;;;;;;;;;5062722;28;20059;-71
2023/03/17 11:32:14;;;;;;;14.88;7.65;;;;;;;;;;5065151;28;20364;-70
2023/03/17 11:35:07;;;;;;;11.98;7.40;;;;;;;;;;5078829;28;20039;-70
2023/03/17 11:37:52;;;;;;;10.10;6.50;;;;;;;;;;5079448;28;20043;-70
2023/03/17 11:40:38;;;;;;;11.05;7.28;;;;;;;;;;5077732;28;20271;-71
2023/03/17 11:43:44;;;;;;;14.07;7.03;;;;;;;;;;5064149;28;20125;-71
2023/03/17 11:46:29;;;;;;;15.23;8.23;;;;;;;;;;5078486;28;20149;-71
2023/03/17 11:49:19;;;;;;;10.13;6.82;;;;;;;;;;5077776;28;20020;-71
2023/03/17 11:52:08;;;;;;;12.85;7.25;;;;;;;;;;5076419;28;20368;-71
2023/03/17 11:55:06;;;;;;;12.68;7.07;;;;;;;;;;5064229;28;20471;-71
2023/03/17 11:57:57;;;;;;;24.15;7.70;;;;;;;;;;5077998;28;20132;-71
2023/03/17 12:00:49;;;;;;;14.95;6.95;;;;;;;;;;5078212;28;20436;-70
2023/03/17 12:03:44;;;;;;;13.00;7.82;;;;;;;;;;5079457;28;20027;-71
2023/03/17 12:06:32;;;;;;;12.40;6.90;;;;;;;;;;5077354;28;20052;-71
2023/03/17 12:09:31;;;;;;;14.32;6.90;;;;;;;;;;5078725;28;20029;-69
2023/03/17 12:12:21;;;;;;;16.83;7.25;;;;;;;;;;5078911;28;20028;-70
2023/03/17 12:15:13;;;;;;;12.73;7.05;;;;;;;;;;5077294;28;20074;-70
2023/03/17 12:18:17;;;;;;;11.90;7.00;;;;;;;;;;5077312;28;20021;-71
2023/03/17 12:21:08;;;;;;;12.52;8.02;;;;;;;;;;5076912;28;20332;-71
2023/03/17 12:23:53;;;;;;;12.68;7.50;;;;;;;;;;5077215;28;20027;-71
2023/03/17 12:26:39;;;;;;;11.25;7.50;;;;;;;;;;5076705;28;20103;-70
2023/03/17 12:29:54;;;;;;;10.25;6.90;;;;;;;;;;5076500;28;20506;-70
2023/03/17 12:32:46;;;;;;;10.07;7.13;;;;;;;;;;5070290;28;20428;-70
2023/03/17 12:35:33;;;;;;;8.95;6.43;;;;;;;;;;5077293;28;20033;-71
2023/03/17 12:38:39;;;;;;;11.45;7.47;;;;;;;;;;5077402;28;20449;-71
2023/03/17 12:41:43;;;;;;;17.08;8.25;;;;;;;;;;5077087;28;20030;-71
2023/03/17 12:44:39;;;;;;;11.93;7.88;;;;;;;;;;5076219;28;20021;-71
2023/03/17 12:47:33;;;;;;;10.82;7.28;;;;;;;;;;5076169;28;20024;-71
2023/03/17 12:50:37;;;;;;;10.02;7.28;;;;;;;;;;5077892;28;20079;-72
2023/03/17 12:53:31;;;;;;;9.93;7.47;;;;;;;;;;5076867;28;20036;-71
2023/03/17 12:56:33;;;;;;;9.73;7.15;;;;;;;;;;5063829;28;20028;-70
2023/03/17 12:59:20;;;;;;;14.30;8.23;;;;;;;;;;5063737;28;20017;-71
2023/03/17 13:02:12;;;;;;;11.40;7.25;;;;;;;;;;5076475;28;20027;-71
2023/03/17 13:04:59;;;;;;;10.25;7.32;;;;;;;;;;5075763;28;20490;-71
2023/03/17 13:07:45;;;;;;;11.07;7.32;;;;;;;;;;5076331;28;20465;-71
2023/03/17 13:10:41;;;;;;;10.70;7.35;;;;;;;;;;5076740;28;20029;-70
2023/03/17 13:13:53;;;;;;;14.82;7.85;;;;;;;;;;5077995;28;20024;-70
2023/03/17 13:16:40;;;;;;;14.75;8.40;;;;;;;;;;5062481;28;20024;-70
2023/03/17 13:19:31;;;;;;;12.85;8.05;;;;;;;;;;5077829;28;20357;-71
2023/03/17 13:22:19;;;;;;;15.25;9.43;;;;;;;;;;5076846;28;20016;-71
2023/03/17 13:25:13;;;;;;;14.95;8.38;;;;;;;;;;5077342;28;20087;-72
2023/03/17 13:28:11;;;;;;;11.82;6.85;;;;;;;;;;5062946;28;20031;-71
2023/03/17 13:31:02;;;;;;;13.00;7.80;;;;;;;;;;5077220;28;20115;-71
2023/03/17 13:33:50;;;;;;;12.65;7.80;;;;;;;;;;5074696;28;20020;-70
2023/03/17 13:36:52;;;;;;;11.95;7.45;;;;;;;;;;5076485;28;20032;-71
2023/03/17 13:39:37;;;;;;;12.38;8.73;;;;;;;;;;5076923;28;20012;-71
2023/03/17 13:42:32;;;;;;;9.80;7.53;;;;;;;;;;5075321;28;20118;-71
2023/03/17 13:45:21;;;;;;;12.02;7.70;;;;;;;;;;5075598;28;20024;-71
2023/03/17 13:48:26;;;;;;;12.20;8.32;;;;;;;;;;5077725;28;20111;-71
2023/03/17 13:51:11;;;;;;;12.98;7.85;;;;;;;;;;5074884;28;20102;-71
2023/03/17 13:54:06;;;;;;;10.30;7.25;;;;;;;;;;5077167;28;20024;-70
2023/03/17 13:56:53;;;;;;;13.27;7.55;;;;;;;;;;5059774;28;20069;-70
2023/03/17 13:59:39;;;;;;;12.23;8.07;;;;;;;;;;5076723;28;20058;-70
2023/03/17 14:02:27;;;;;;;12.30;7.68;;;;;;;;;;5075604;28;20357;-71
2023/03/17 14:05:23;;;;;;;11.32;8.20;;;;;;;;;;5075732;28;20017;-70
2023/03/17 14:08:27;;;;;;;14.95;8.52;;;;;;;;;;5055826;28;20335;-71
2023/03/17 14:11:16;;;;;;;12.45;8.23;;;;;;;;;;5055611;28;20021;-71
2023/03/17 14:14:20;;;;;;;10.65;8.13;;;;;;;;;;5056090;28;20028;-69
2023/03/17 14:17:26;;;;;;;14.85;8.15;;;;;;;;;;5055777;28;20025;-71
2023/03/17 14:20:12;;;;;;;12.85;8.55;;;;;;;;;;5041627;28;20020;-71
2023/03/17 14:22:59;;;;;;;11.40;7.85;;;;;;;;;;5042450;28;20454;-70
2023/03/17 14:25:44;;;;;;;16.50;9.07;;;;;;;;;;5055557;28;20048;-71
2023/03/17 14:28:32;;;;;;;14.85;9.63;;;;;;;;;;5055296;28;20043;-71
2023/03/17 14:31:27;;;;;;;12.90;8.55;;;;;;;;;;5055204;28;20112;-72
2023/03/17 14:34:16;;;;;;;17.98;9.05;;;;;;;;;;5055304;28;20025;-71
2023/03/17 14:37:03;;;;;;;14.38;9.05;;;;;;;;;;5054997;28;20409;-70
2023/03/17 14:39:53;;;;;;;15.43;9.10;;;;;;;;;;5054972;28;20048;-70
2023/03/17 14:42:38;;;;;;;13.80;9.13;;;;;;;;;;5055030;28;20173;-71
2023/03/17 14:45:28;;;;;;;17.63;10.90;;;;;;;;;;5054148;28;20358;-71
2023/03/17 14:48:15;;;;;;;13.00;9.55;;;;;;;;;;5055409;28;20087;-70
2023/03/17 14:51:06;;;;;;;14.15;9.80;;;;;;;;;;5055232;28;20410;-72
2023/03/17 14:53:52;;;;;;;14.13;10.20;;;;;;;;;;5055784;28;20017;-70
2023/03/17 14:56:42;;;;;;;14.20;9.35;;;;;;;;;;5054182;28;20079;-70
2023/03/17 14:59:38;;;;;;;12.15;8.93;;;;;;;;;;5054712;28;20013;-72
2023/03/17 15:02:47;;;;;;;12.13;8.50;;;;;;;;;;5054677;28;20025;-70
2023/03/17 15:05:37;;;;;;;16.80;10.55;;;;;;;;;;5055086;28;20364;-71
2023/03/17 15:08:36;;;;;;;17.65;9.82;;;;;;;;;;5074732;28;20036;-71
2023/03/17 15:11:23;;;;;;;15.63;10.82;;;;;;;;;;5074918;28;20071;-70
2023/03/17 15:14:12;;;;;;;15.75;10.77;;;;;;;;;;5074576;28;20028;-71
2023/03/17 15:17:00;;;;;;;15.68;10.20;;;;;;;;;;5073610;28;20121;-70
2023/03/17 15:19:47;;;;;;;17.65;11.88;;;;;;;;;;5076590;28;20351;-71
2023/03/17 15:22:33;;;;;;;14.85;10.40;;;;;;;;;;5073685;28;20025;-71
2023/03/17 15:25:19;;;;;;;16.58;10.85;;;;;;;;;;5074405;28;20094;-70
2023/03/17 15:28:11;;;;;;;17.92;10.95;;;;;;;;;;5075062;28;20028;-70
2023/03/17 15:31:04;;;;;;;18.88;11.00;;;;;;;;;;5072310;28;20425;-70
2023/03/17 15:33:50;;;;;;;17.67;10.98;;;;;;;;;;5075877;28;20067;-70
2023/03/17 15:36:35;;;;;;;21.80;11.50;;;;;;;;;;5074507;28;20020;-69
2023/03/17 15:39:21;;;;;;;18.42;10.88;;;;;;;;;;5074571;28;20453;-70
2023/03/17 15:42:07;;;;;;;19.30;10.90;;;;;;;;;;5073897;28;20021;-70
2023/03/17 15:44:53;;;;;;;19.85;11.27;;;;;;;;;;5073987;28;20025;-70
2023/03/17 15:47:40;;;;;;;18.45;11.18;;;;;;;;;;5074469;28;20377;-70
2023/03/17 15:50:30;;;;;;;17.73;11.27;;;;;;;;;;5074690;28;20036;-71
2023/03/17 15:53:15;;;;;;;15.85;10.75;;;;;;;;;;5072732;28;20528;-71
2023/03/17 15:56:01;;;;;;;19.90;11.85;;;;;;;;;;5075860;28;20376;-69
2023/03/17 15:58:48;;;;;;;16.65;11.85;;;;;;;;;;5078366;28;20074;-71
2023/03/17 16:01:34;;;;;;;19.20;11.95;;;;;;;;;;5077880;28;20063;-71
2023/03/17 16:04:19;;;;;;;20.73;12.80;;;;;;;;;;5077839;28;20114;-70
2023/03/17 16:07:10;;;;;;;16.63;11.75;;;;;;;;;;5062337;28;20094;-71
2023/03/17 16:09:56;;;;;;;18.33;12.10;;;;;;;;;;5076896;28;20021;-70
2023/03/17 16:12:42;;;;;;;16.52;11.63;;;;;;;;;;5078827;28;20107;-69
2023/03/17 16:15:30;;;;;;;25.52;11.95;;;;;;;;;;5077799;28;20082;-71
2023/03/17 16:18:17;;;;;;;17.08;11.40;;;;;;;;;;5077220;28;20373;-71
2023/03/17 16:21:03;;;;;;;19.60;12.02;;;;;;;;;;5077656;28;20445;-71
2023/03/17 16:23:49;;;;;;;17.65;11.77;;;;;;;;;;5077043;28;20437;-71
2023/03/17 16:26:34;;;;;;;17.80;11.45;;;;;;;;;;5077349;28;20081;-70
2023/03/17 16:29:20;;;;;;;19.10;10.77;;;;;;;;;;5061625;28;20119;-70
2023/03/17 16:32:08;;;;;;;19.02;11.75;;;;;;;;;;5062400;28;20024;-69